createdAt,value
2018-01-07T00:00:29.046Z,2.82
2018-01-07T00:01:28.958Z,2.84
2018-01-07T00:02:29.220Z,2.74
2018-01-07T00:03:28.990Z,2.67
2018-01-07T00:04:29.024Z,2.66
2018-01-07T00:05:29.046Z,2.59
2018-01-07T00:06:29.045Z,2.63
2018-01-07T00:07:29.344Z,2.59
2018-01-07T00:08:29.077Z,2.64
2018-01-07T00:09:29.237Z,2.64
2018-01-07T00:10:29.396Z,2.60
2018-01-07T00:11:29.269Z,2.54
2018-01-07T00:12:29.157Z,2.54
2018-01-07T00:13:29.274Z,2.42
2018-01-07T00:14:29.190Z,2.48
2018-01-07T00:15:29.326Z,2.46
2018-01-07T00:16:29.223Z,2.46
2018-01-07T00:17:29.266Z,2.45
2018-01-07T00:18:29.487Z,2.43
2018-01-07T00:19:29.290Z,2.48
2018-01-07T00:20:29.292Z,2.43
2018-01-07T00:21:29.310Z,2.48
2018-01-07T00:22:29.329Z,2.46
2018-01-07T00:23:29.629Z,2.52
2018-01-07T00:24:29.364Z,2.43
2018-01-07T00:25:29.385Z,2.30
2018-01-07T00:26:29.677Z,2.28
2018-01-07T00:27:29.413Z,2.38
2018-01-07T00:28:29.430Z,2.38
2018-01-07T00:29:29.446Z,2.27
2018-01-07T00:30:29.468Z,2.30
2018-01-07T00:31:29.498Z,2.28
2018-01-07T00:32:30.230Z,2.24
2018-01-07T00:33:29.519Z,2.28
2018-01-07T00:34:29.540Z,2.25
2018-01-07T00:35:29.559Z,2.24
2018-01-07T00:36:30.175Z,2.21
2018-01-07T00:37:29.592Z,2.25
2018-01-07T00:38:29.605Z,2.18
2018-01-07T00:39:29.627Z,2.14
2018-01-07T00:40:29.639Z,2.10
2018-01-07T00:41:29.662Z,2.17
2018-01-07T00:42:30.095Z,2.16
2018-01-07T00:43:29.931Z,2.16
2018-01-07T00:44:29.910Z,2.09
2018-01-07T00:45:29.792Z,2.17
2018-01-07T00:46:29.747Z,2.09
2018-01-07T00:47:29.818Z,2.20
2018-01-07T00:48:30.020Z,2.20
2018-01-07T00:49:29.801Z,2.06
2018-01-07T00:50:29.901Z,2.09
2018-01-07T00:51:30.392Z,2.06
2018-01-07T00:53:29.866Z,2.03
2018-01-07T00:54:29.879Z,1.93
2018-01-07T00:56:29.943Z,2.05
2018-01-07T00:57:29.944Z,1.99
2018-01-07T00:58:29.959Z,1.93
2018-01-07T00:59:31.638Z,1.95
2018-01-07T01:00:32.490Z,2.02
2018-01-07T01:01:42.795Z,1.90
2018-01-07T01:02:30.026Z,1.95
2018-01-07T01:03:30.067Z,1.88
2018-01-07T01:04:30.142Z,1.87
2018-01-07T01:05:30.462Z,1.84
2018-01-07T01:06:30.160Z,1.80
2018-01-07T01:07:30.114Z,1.80
2018-01-07T01:08:30.177Z,1.87
2018-01-07T01:09:30.193Z,1.84
2018-01-07T01:10:30.208Z,1.83
2018-01-07T01:11:30.240Z,1.83
2018-01-07T01:12:30.256Z,1.81
2018-01-07T01:13:30.308Z,1.72
2018-01-07T01:14:30.307Z,1.72
2018-01-07T01:15:30.240Z,1.76
2018-01-07T01:16:30.263Z,1.76
2018-01-07T01:17:30.276Z,1.70
2018-01-07T01:18:30.303Z,1.73
2018-01-07T01:19:30.310Z,1.63
2018-01-07T01:20:31.685Z,1.66
2018-01-07T01:21:30.349Z,1.66
2018-01-07T01:22:30.459Z,1.59
2018-01-07T01:23:30.372Z,1.54
2018-01-07T01:24:30.393Z,1.58
2018-01-07T01:25:30.813Z,1.54
2018-01-07T01:26:30.428Z,1.54
2018-01-07T01:27:31.213Z,1.55
2018-01-07T01:28:30.476Z,1.62
2018-01-07T01:29:30.516Z,1.55
2018-01-07T01:30:30.502Z,1.58
2018-01-07T01:31:30.774Z,1.54
2018-01-07T01:32:30.839Z,1.54
2018-01-07T01:33:32.487Z,1.48
2018-01-07T01:34:30.692Z,1.45
2018-01-07T01:35:30.582Z,1.47
2018-01-07T01:36:30.774Z,1.47
2018-01-07T01:37:30.614Z,1.51
2018-01-07T01:38:30.911Z,1.47
2018-01-07T01:39:31.907Z,1.47
2018-01-07T01:40:30.662Z,1.41
2018-01-07T01:41:33.531Z,1.58
2018-01-07T01:42:30.696Z,1.47
2018-01-07T01:43:30.798Z,1.37
2018-01-07T01:44:30.747Z,1.41
2018-01-07T01:45:30.746Z,1.41
2018-01-07T01:46:30.921Z,1.40
2018-01-07T01:47:30.784Z,1.33
2018-01-07T01:48:30.796Z,1.37
2018-01-07T01:49:30.844Z,1.37
2018-01-07T01:50:31.317Z,1.37
2018-01-07T01:51:37.978Z,1.37
2018-01-07T01:53:23.808Z,1.26
2018-01-07T01:54:23.816Z,1.23
2018-01-07T01:56:16.786Z,1.27
2018-01-07T01:57:16.784Z,1.24
2018-01-07T01:59:09.693Z,1.24
2018-01-07T02:00:09.700Z,1.23
2018-01-07T02:02:02.634Z,1.16
2018-01-07T02:03:02.629Z,1.22
2018-01-07T02:04:55.548Z,1.20
2018-01-07T02:05:55.560Z,1.15
2018-01-07T02:07:48.499Z,1.14
2018-01-07T02:08:48.499Z,1.09
2018-01-07T02:10:41.415Z,1.14
2018-01-07T02:11:41.438Z,1.05
2018-01-07T02:13:34.328Z,1.00
2018-01-07T02:14:34.335Z,1.02
2018-01-07T02:16:27.250Z,1.02
2018-01-07T02:17:27.250Z,0.98
2018-01-07T02:19:20.156Z,1.00
2018-01-07T02:20:20.167Z,0.96
2018-01-07T02:22:13.099Z,1.00
2018-01-07T02:23:13.091Z,0.96
2018-01-07T02:25:05.994Z,1.05
2018-01-07T02:26:06.000Z,0.98
2018-01-07T02:27:58.940Z,0.93
2018-01-07T02:28:58.928Z,0.93
2018-01-07T02:30:51.830Z,0.87
2018-01-07T02:31:51.843Z,0.86
2018-01-07T02:33:44.886Z,0.90
2018-01-07T02:34:44.776Z,0.84
2018-01-07T02:36:37.684Z,0.86
2018-01-07T02:37:37.695Z,0.86
2018-01-07T02:39:30.610Z,0.79
2018-01-07T02:40:30.612Z,0.86
2018-01-07T02:42:23.521Z,0.79
2018-01-07T02:43:23.532Z,0.83
2018-01-07T02:45:16.469Z,0.90
2018-01-07T02:46:16.463Z,0.90
2018-01-07T02:48:09.364Z,0.80
2018-01-07T02:49:09.378Z,0.80
2018-01-07T02:51:02.316Z,0.72
2018-01-07T02:52:02.297Z,0.86
2018-01-07T02:53:55.209Z,0.84
2018-01-07T02:54:55.224Z,0.76
2018-01-07T02:56:48.147Z,0.68
2018-01-07T02:57:48.141Z,0.79
2018-01-07T02:59:41.056Z,0.70
2018-01-07T03:00:41.066Z,0.70
2018-01-07T03:02:34.021Z,0.66
2018-01-07T03:03:34.039Z,0.65
2018-01-07T03:05:26.904Z,0.70
2018-01-07T03:06:26.913Z,0.72
2018-01-07T03:08:19.844Z,0.62
2018-01-07T03:09:19.844Z,0.55
2018-01-07T03:11:12.745Z,0.60
2018-01-07T03:12:12.753Z,0.58
2018-01-07T03:14:05.710Z,0.61
2018-01-07T03:15:05.683Z,0.65
2018-01-07T03:16:58.589Z,0.46
2018-01-07T03:17:58.590Z,0.58
2018-01-07T03:19:51.523Z,0.57
2018-01-07T03:20:51.515Z,0.55
2018-01-07T03:22:44.422Z,0.55
2018-01-07T03:23:44.431Z,0.55
2018-01-07T03:25:37.359Z,0.58
2018-01-07T03:26:37.348Z,0.58
2018-01-07T03:28:30.310Z,0.49
2018-01-07T03:29:30.265Z,0.50
2018-01-07T03:31:23.188Z,0.55
2018-01-07T03:32:23.192Z,0.46
2018-01-07T03:34:16.094Z,0.55
2018-01-07T03:35:16.105Z,0.51
2018-01-07T03:37:09.040Z,0.36
2018-01-07T03:38:09.027Z,0.46
2018-01-07T03:40:01.930Z,0.47
2018-01-07T03:41:01.951Z,0.42
2018-01-07T03:42:54.858Z,0.38
2018-01-07T03:43:54.865Z,0.47
2018-01-07T03:45:48.298Z,0.38
2018-01-07T03:46:48.308Z,0.35
2018-01-07T03:48:41.238Z,0.44
2018-01-07T03:49:41.226Z,0.44
2018-01-07T03:51:34.138Z,0.41
2018-01-07T03:52:34.157Z,0.47
2018-01-07T03:54:27.074Z,0.42
2018-01-07T03:55:27.071Z,0.51
2018-01-07T03:57:19.989Z,0.36
2018-01-07T03:58:19.984Z,0.47
2018-01-07T04:00:12.908Z,0.44
2018-01-07T04:01:12.909Z,0.47
2018-01-07T04:03:05.808Z,0.44
2018-01-07T04:04:05.818Z,0.44
2018-01-07T04:05:58.736Z,0.36
2018-01-07T04:06:58.744Z,0.51
2018-01-07T04:08:51.650Z,0.36
2018-01-07T04:09:51.666Z,0.44
2018-01-07T04:11:44.591Z,0.42
2018-01-07T04:12:44.580Z,0.44
2018-01-07T04:14:37.490Z,0.42
2018-01-07T04:15:37.493Z,0.41
2018-01-07T04:17:30.411Z,0.53
2018-01-07T04:18:30.411Z,0.51
2018-01-07T04:20:23.337Z,0.51
2018-01-07T04:21:23.327Z,0.50
2018-01-07T04:22:23.351Z,0.51
2018-01-07T04:23:23.360Z,0.51
2018-01-07T04:24:23.377Z,0.53
2018-01-07T04:25:23.390Z,0.51
2018-01-07T04:26:23.407Z,0.41
2018-01-07T04:27:23.436Z,0.47
2018-01-07T04:28:23.435Z,0.49
2018-01-07T04:29:23.477Z,0.47
2018-01-07T04:30:23.468Z,0.49
2018-01-07T04:31:23.488Z,0.42
2018-01-07T04:32:23.499Z,0.44
2018-01-07T04:33:23.514Z,0.47
2018-01-07T04:34:23.533Z,0.42
2018-01-07T04:35:23.551Z,0.38
2018-01-07T04:36:23.564Z,0.44
2018-01-07T04:37:23.579Z,0.42
2018-01-07T04:38:23.601Z,0.47
2018-01-07T04:39:23.611Z,0.47
2018-01-07T04:40:23.627Z,0.50
2018-01-07T04:41:23.648Z,0.49
2018-01-07T04:42:23.656Z,0.47
2018-01-07T04:43:23.674Z,0.47
2018-01-07T04:44:23.709Z,0.51
2018-01-07T04:45:23.716Z,0.44
2018-01-07T04:46:23.725Z,0.41
2018-01-07T04:47:23.736Z,0.42
2018-01-07T04:48:23.759Z,0.44
2018-01-07T04:49:23.777Z,0.41
2018-01-07T04:50:23.791Z,0.41
2018-01-07T04:51:23.805Z,0.50
2018-01-07T04:52:23.817Z,0.49
2018-01-07T04:53:23.867Z,0.50
2018-01-07T04:54:23.850Z,0.53
2018-01-07T04:55:23.868Z,0.50
2018-01-07T04:56:23.879Z,0.46
2018-01-07T04:57:23.900Z,0.51
2018-01-07T04:58:23.922Z,0.49
2018-01-07T04:59:23.933Z,0.50
2018-01-07T05:00:23.945Z,0.50
2018-01-07T05:01:23.960Z,0.50
2018-01-07T05:02:23.974Z,0.60
2018-01-07T05:03:23.996Z,0.62
2018-01-07T05:04:24.006Z,0.58
2018-01-07T05:05:24.028Z,0.57
2018-01-07T05:06:24.048Z,0.66
2018-01-07T05:07:24.060Z,0.55
2018-01-07T05:08:24.073Z,0.66
2018-01-07T05:09:24.092Z,0.70
2018-01-07T05:10:24.109Z,0.61
2018-01-07T05:11:24.121Z,0.76
2018-01-07T05:12:24.137Z,0.78
2018-01-07T05:13:24.155Z,0.65
2018-01-07T05:14:24.171Z,0.72
2018-01-07T05:15:24.187Z,0.58
2018-01-07T05:16:24.203Z,0.57
2018-01-07T05:17:24.220Z,0.65
2018-01-07T05:18:24.236Z,0.68
2018-01-07T05:19:24.262Z,0.65
2018-01-07T05:20:24.269Z,0.57
2018-01-07T05:21:24.281Z,0.62
2018-01-07T05:22:24.297Z,0.55
2018-01-07T05:23:24.315Z,0.58
2018-01-07T05:24:24.336Z,0.62
2018-01-07T05:25:24.344Z,0.60
2018-01-07T05:26:24.358Z,0.57
2018-01-07T05:27:24.380Z,0.60
2018-01-07T05:28:24.395Z,0.58
2018-01-07T05:29:24.413Z,0.53
2018-01-07T05:30:24.433Z,0.58
2018-01-07T05:32:16.369Z,0.62
2018-01-07T05:33:16.373Z,0.55
2018-01-07T05:35:09.339Z,0.58
2018-01-07T05:36:09.350Z,0.47
2018-01-07T05:38:02.316Z,0.46
2018-01-07T05:39:02.308Z,0.44
2018-01-07T05:40:55.229Z,0.49
2018-01-07T05:41:55.234Z,0.38
2018-01-07T05:43:48.252Z,0.44
2018-01-07T05:44:48.247Z,0.39
2018-01-07T05:46:41.212Z,0.44
2018-01-07T05:47:41.212Z,0.41
2018-01-07T05:49:34.168Z,0.51
2018-01-07T05:50:34.183Z,0.44
2018-01-07T05:52:27.151Z,0.35
2018-01-07T05:53:27.151Z,0.42
2018-01-07T05:55:20.115Z,0.46
2018-01-07T05:56:20.122Z,0.47
2018-01-07T05:58:13.102Z,0.39
2018-01-07T05:59:13.086Z,0.31
2018-01-07T06:01:06.041Z,0.35
2018-01-07T06:02:06.050Z,0.46
2018-01-07T06:03:58.972Z,0.28
2018-01-07T06:04:58.972Z,0.38
2018-01-07T06:06:51.976Z,0.28
2018-01-07T06:07:51.992Z,0.35
2018-01-07T06:09:44.975Z,0.33
2018-01-07T06:10:44.953Z,0.35
2018-01-07T06:12:37.958Z,0.38
2018-01-07T06:13:37.960Z,0.32
2018-01-07T06:15:31.044Z,0.38
2018-01-07T06:16:31.031Z,0.35
2018-01-07T06:18:23.945Z,0.41
2018-01-07T06:19:23.977Z,0.32
2018-01-07T06:21:16.933Z,0.28
2018-01-07T06:22:16.931Z,0.32
2018-01-07T06:24:09.938Z,0.33
2018-01-07T06:25:09.887Z,0.31
2018-01-07T06:27:02.850Z,0.31
2018-01-07T06:28:02.856Z,0.29
2018-01-07T06:29:55.860Z,0.29
2018-01-07T06:30:55.826Z,0.29
2018-01-07T06:32:48.788Z,0.23
2018-01-07T06:33:48.794Z,0.24
2018-01-07T06:35:41.708Z,0.24
2018-01-07T06:36:41.709Z,0.20
2018-01-07T06:37:41.717Z,0.29
2018-01-07T06:38:41.736Z,0.18
2018-01-07T06:39:41.752Z,0.26
2018-01-07T06:40:41.768Z,0.26
2018-01-07T06:41:41.789Z,0.26
2018-01-07T06:42:41.797Z,0.23
2018-01-07T06:43:41.817Z,0.26
2018-01-07T06:44:41.831Z,0.31
2018-01-07T06:45:41.843Z,0.21
2018-01-07T06:46:41.868Z,0.18
2018-01-07T06:47:41.883Z,0.24
2018-01-07T06:48:41.896Z,0.18
2018-01-07T06:49:41.925Z,0.15
2018-01-07T06:50:41.928Z,0.18
